Time;durP1;ratioP1;P1;durP2;ratioP2;P2;SDS_P1;SDS_P2;PMS_P1;PMS_P2;Temp;Humidity;BMP_temperature;BMP_pressure;BME280_temperature;BME280_humidity;BME280_pressure;Samples;Min_cycle;Max_cycle;Signal;HPM_P1;HPM_P2
2023/08/06 00:01:37;;;;;;;5.70;2.67;;;;;;;;;;4935540;29;20558;-74
2023/08/06 00:04:04;;;;;;;5.10;3.00;;;;;;;;;;4903112;29;20201;-74
2023/08/06 00:06:31;;;;;;;5.27;3.00;;;;;;;;;;4935502;29;20190;-75
2023/08/06 00:08:58;;;;;;;5.00;2.40;;;;;;;;;;4934211;29;20230;-74
2023/08/06 00:11:24;;;;;;;4.73;2.30;;;;;;;;;;4918360;29;20238;-74
2023/08/06 00:13:51;;;;;;;4.97;2.60;;;;;;;;;;4935216;29;20205;-74
2023/08/06 00:16:18;;;;;;;4.00;2.10;;;;;;;;;;4933062;29;20199;-75
2023/08/06 00:18:44;;;;;;;4.57;2.20;;;;;;;;;;4917095;29;20197;-75
2023/08/06 00:21:14;;;;;;;4.20;2.33;;;;;;;;;;4934119;29;20285;-75
2023/08/06 00:23:41;;;;;;;2.90;2.40;;;;;;;;;;4933915;29;20254;-74
2023/08/06 00:26:08;;;;;;;4.20;2.50;;;;;;;;;;4927700;29;20204;-74
2023/08/06 00:28:34;;;;;;;3.87;2.37;;;;;;;;;;4930000;29;20305;-75
2023/08/06 00:31:01;;;;;;;3.10;2.57;;;;;;;;;;4954144;29;20190;-74
2023/08/06 00:33:28;;;;;;;3.50;2.23;;;;;;;;;;4946205;29;20202;-74
2023/08/06 00:35:54;;;;;;;2.77;2.20;;;;;;;;;;4934762;29;20187;-74
2023/08/06 00:38:21;;;;;;;3.10;2.40;;;;;;;;;;4932275;29;20198;-74
2023/08/06 00:40:48;;;;;;;4.10;2.40;;;;;;;;;;4907646;29;20199;-74
2023/08/06 00:43:15;;;;;;;6.47;3.17;;;;;;;;;;4931173;29;20195;-75
2023/08/06 00:45:42;;;;;;;6.00;2.63;;;;;;;;;;4904714;29;20721;-74
2023/08/06 00:48:09;;;;;;;6.50;2.77;;;;;;;;;;4898278;29;20684;-76
2023/08/06 00:50:35;;;;;;;6.83;2.80;;;;;;;;;;4916581;29;20222;-75
2023/08/06 00:53:02;;;;;;;4.07;2.90;;;;;;;;;;4917265;29;20252;-74
2023/08/06 00:55:29;;;;;;;5.60;2.90;;;;;;;;;;4933255;29;20258;-75
2023/08/06 00:57:56;;;;;;;4.93;2.87;;;;;;;;;;4934283;29;20195;-74
2023/08/06 01:00:23;;;;;;;5.37;3.00;;;;;;;;;;4901672;29;20717;-75
2023/08/06 01:02:50;;;;;;;7.00;3.20;;;;;;;;;;4915351;29;20230;-74
2023/08/06 01:05:17;;;;;;;6.40;3.17;;;;;;;;;;4932085;29;20202;-74
2023/08/06 01:07:55;;;;;;;7.67;3.00;;;;;;;;;;4933420;29;20198;-74
2023/08/06 01:10:31;;;;;;;4.57;3.00;;;;;;;;;;4914836;29;20219;-74
2023/08/06 01:45:53;;;;;;;6.10;2.90;;;;;;;;;;4693190;29;20320;-77
2023/08/06 01:48:20;;;;;;;5.13;3.30;;;;;;;;;;4877461;29;20193;-74
2023/08/06 01:50:47;;;;;;;5.07;3.20;;;;;;;;;;4877479;29;20197;-74
2023/08/06 01:53:14;;;;;;;3.63;2.80;;;;;;;;;;4883816;29;20196;-75
2023/08/06 01:55:41;;;;;;;6.17;3.20;;;;;;;;;;4863079;29;20291;-75
2023/08/06 01:58:08;;;;;;;4.87;3.00;;;;;;;;;;4893255;29;20687;-74
2023/08/06 02:00:34;;;;;;;6.03;2.47;;;;;;;;;;4874671;29;20657;-74
2023/08/06 02:03:19;;;;;;;5.10;3.10;;;;;;;;;;4879216;29;20264;-74
2023/08/06 02:05:47;;;;;;;4.40;2.43;;;;;;;;;;4892894;29;20207;-75
2023/08/06 02:08:14;;;;;;;2.57;2.27;;;;;;;;;;4895413;29;20211;-74
2023/08/06 02:10:41;;;;;;;4.90;2.40;;;;;;;;;;4895031;29;20739;-74
2023/08/06 02:13:08;;;;;;;3.33;2.37;;;;;;;;;;4894536;29;20196;-74
2023/08/06 02:15:52;;;;;;;2.67;2.13;;;;;;;;;;4894650;29;20191;-74
2023/08/06 02:18:19;;;;;;;4.63;2.37;;;;;;;;;;4894856;29;20196;-74
2023/08/06 02:21:04;;;;;;;3.07;2.30;;;;;;;;;;4892412;29;20182;-74
2023/08/06 02:23:30;;;;;;;4.60;2.60;;;;;;;;;;4878203;29;20235;-74
2023/08/06 02:26:04;;;;;;;2.73;2.27;;;;;;;;;;4891158;29;20246;-75
2023/08/06 02:28:31;;;;;;;4.33;2.40;;;;;;;;;;4885173;29;20196;-74
2023/08/06 02:30:57;;;;;;;3.50;2.37;;;;;;;;;;4891935;29;20192;-74
2023/08/06 02:33:24;;;;;;;3.37;2.73;;;;;;;;;;4893939;29;20675;-74
2023/08/06 02:35:51;;;;;;;3.53;2.73;;;;;;;;;;4893822;29;20219;-73
2023/08/06 02:38:35;;;;;;;3.30;2.50;;;;;;;;;;4894669;29;20255;-74
2023/08/06 02:41:02;;;;;;;4.57;3.03;;;;;;;;;;4892095;29;20291;-74
2023/08/06 02:43:29;;;;;;;5.10;3.20;;;;;;;;;;4891933;29;20200;-74
2023/08/06 02:45:57;;;;;;;4.17;3.17;;;;;;;;;;4879953;29;20244;-74
2023/08/06 02:48:24;;;;;;;5.53;3.30;;;;;;;;;;4915407;29;20301;-74
2023/08/06 02:50:52;;;;;;;6.63;4.10;;;;;;;;;;4903580;29;20668;-74
2023/08/06 02:53:19;;;;;;;4.00;3.00;;;;;;;;;;4933209;29;20257;-74
2023/08/06 02:55:49;;;;;;;6.03;3.37;;;;;;;;;;4911095;29;20286;-74
2023/08/06 02:58:48;;;;;;;4.73;3.40;;;;;;;;;;4909123;29;20184;-73
2023/08/06 03:01:28;;;;;;;9.30;3.33;;;;;;;;;;4895647;29;20206;-74
2023/08/06 03:04:01;;;;;;;6.37;3.23;;;;;;;;;;4909643;29;20203;-74
2023/08/06 03:06:34;;;;;;;5.17;3.30;;;;;;;;;;4914323;29;20573;-73
2023/08/06 03:09:02;;;;;;;5.20;3.67;;;;;;;;;;4914281;29;20218;-74
2023/08/06 03:11:28;;;;;;;7.43;3.47;;;;;;;;;;4915369;29;20610;-74
2023/08/06 03:14:01;;;;;;;6.63;3.57;;;;;;;;;;4915340;29;20211;-74
2023/08/06 03:16:30;;;;;;;6.23;3.80;;;;;;;;;;4917940;29;20206;-74
2023/08/06 03:18:58;;;;;;;7.57;4.07;;;;;;;;;;4917428;29;20203;-75
2023/08/06 03:21:24;;;;;;;8.33;4.17;;;;;;;;;;4900559;29;20277;-73
2023/08/06 03:23:51;;;;;;;6.03;3.93;;;;;;;;;;4917568;29;20205;-74
2023/08/06 03:26:23;;;;;;;5.10;3.77;;;;;;;;;;4889614;29;20199;-74
2023/08/06 03:28:50;;;;;;;5.03;4.33;;;;;;;;;;4900512;29;20231;-73
2023/08/06 03:31:17;;;;;;;5.03;4.30;;;;;;;;;;4933884;29;20200;-73
2023/08/06 03:33:44;;;;;;;6.57;4.20;;;;;;;;;;4917944;29;20194;-73
2023/08/06 03:36:17;;;;;;;6.53;4.40;;;;;;;;;;4897226;29;20197;-73
2023/08/06 03:38:44;;;;;;;4.83;4.20;;;;;;;;;;4934774;29;20274;-73
2023/08/06 03:41:13;;;;;;;5.73;4.80;;;;;;;;;;4902455;29;20218;-74
2023/08/06 03:43:40;;;;;;;5.70;4.37;;;;;;;;;;4903727;29;20214;-73
2023/08/06 03:46:12;;;;;;;4.70;4.23;;;;;;;;;;4918350;29;20630;-74
2023/08/06 03:48:38;;;;;;;5.60;4.17;;;;;;;;;;4935091;29;20554;-72
2023/08/06 03:51:06;;;;;;;5.50;3.93;;;;;;;;;;4932641;29;20191;-73
2023/08/06 03:53:33;;;;;;;5.50;4.43;;;;;;;;;;4917131;29;20233;-73
2023/08/06 03:56:00;;;;;;;6.97;4.53;;;;;;;;;;4909927;29;20212;-74
2023/08/06 03:58:30;;;;;;;7.07;4.20;;;;;;;;;;4918434;29;20194;-73
2023/08/06 04:01:14;;;;;;;7.20;4.47;;;;;;;;;;4934555;29;20183;-74
2023/08/06 04:03:44;;;;;;;5.33;4.40;;;;;;;;;;4918015;29;20219;-72
2023/08/06 04:06:11;;;;;;;5.17;4.40;;;;;;;;;;4917722;29;20199;-73
2023/08/06 04:08:38;;;;;;;5.97;4.40;;;;;;;;;;4935398;29;20191;-74
2023/08/06 04:11:04;;;;;;;7.77;4.80;;;;;;;;;;4934767;29;20226;-73
2023/08/06 04:13:32;;;;;;;7.77;4.67;;;;;;;;;;4916427;29;20202;-74
2023/08/06 04:16:02;;;;;;;5.73;4.73;;;;;;;;;;4934841;29;20205;-73
2023/08/06 04:18:30;;;;;;;6.10;4.63;;;;;;;;;;4917370;29;20235;-74
2023/08/06 04:20:57;;;;;;;6.90;4.73;;;;;;;;;;4913960;29;20198;-73
2023/08/06 04:23:24;;;;;;;6.20;4.20;;;;;;;;;;4932556;29;20203;-74
2023/08/06 04:25:57;;;;;;;8.20;4.80;;;;;;;;;;4934578;29;20202;-73
2023/08/06 04:28:41;;;;;;;7.40;4.40;;;;;;;;;;4933377;29;20833;-73
2023/08/06 04:31:08;;;;;;;7.37;4.20;;;;;;;;;;4917394;29;20321;-74
2023/08/06 04:33:53;;;;;;;8.60;4.73;;;;;;;;;;4915641;29;20541;-73
2023/08/06 04:36:20;;;;;;;6.47;4.30;;;;;;;;;;4932799;29;20202;-73
2023/08/06 04:38:47;;;;;;;6.33;4.40;;;;;;;;;;4916702;29;20258;-74
2023/08/06 04:41:15;;;;;;;7.57;4.63;;;;;;;;;;4913494;29;20562;-73
2023/08/06 04:43:41;;;;;;;7.40;4.57;;;;;;;;;;4917813;29;20796;-73
2023/08/06 04:46:09;;;;;;;8.80;4.93;;;;;;;;;;4904116;29;20237;-74
2023/08/06 04:48:36;;;;;;;7.87;4.90;;;;;;;;;;4929627;29;20238;-74
2023/08/06 04:51:02;;;;;;;6.97;5.20;;;;;;;;;;4931904;29;20221;-73
2023/08/06 04:53:29;;;;;;;9.37;5.87;;;;;;;;;;4935258;29;20203;-73
2023/08/06 04:55:56;;;;;;;8.40;5.70;;;;;;;;;;4912660;29;20219;-72
2023/08/06 04:58:22;;;;;;;9.07;6.30;;;;;;;;;;4935006;29;20182;-74
2023/08/06 05:00:49;;;;;;;8.13;5.17;;;;;;;;;;4933853;29;20206;-74
2023/08/06 05:03:16;;;;;;;10.60;5.47;;;;;;;;;;4917373;29;20198;-73
2023/08/06 05:05:42;;;;;;;11.23;6.00;;;;;;;;;;4930288;29;20199;-74
2023/08/06 05:08:14;;;;;;;8.80;5.67;;;;;;;;;;4933818;29;20273;-73
2023/08/06 05:10:42;;;;;;;9.37;5.77;;;;;;;;;;4907016;29;20223;-74
2023/08/06 05:13:08;;;;;;;7.87;5.57;;;;;;;;;;4933575;29;20221;-74
2023/08/06 05:15:36;;;;;;;10.60;5.93;;;;;;;;;;4934148;29;20246;-74
2023/08/06 05:18:02;;;;;;;10.80;5.63;;;;;;;;;;4933526;29;20199;-73
2023/08/06 05:20:29;;;;;;;8.93;5.80;;;;;;;;;;4916034;29;20306;-75
2023/08/06 05:22:56;;;;;;;10.87;5.47;;;;;;;;;;4932289;29;20202;-73
2023/08/06 05:25:23;;;;;;;12.23;5.87;;;;;;;;;;4933633;29;20210;-73
2023/08/06 05:27:49;;;;;;;10.70;6.30;;;;;;;;;;4932898;29;20194;-73
2023/08/06 05:30:16;;;;;;;8.17;5.77;;;;;;;;;;4914517;29;20594;-74
2023/08/06 05:32:43;;;;;;;7.27;5.07;;;;;;;;;;4934226;29;20230;-74
2023/08/06 05:35:10;;;;;;;8.97;5.03;;;;;;;;;;4931903;29;20198;-73
2023/08/06 05:37:37;;;;;;;7.13;4.83;;;;;;;;;;4932583;29;20250;-74
2023/08/06 05:40:04;;;;;;;6.07;4.50;;;;;;;;;;4933482;29;20215;-74
2023/08/06 05:42:30;;;;;;;7.40;3.90;;;;;;;;;;4933787;29;20221;-73
2023/08/06 05:45:15;;;;;;;4.73;3.57;;;;;;;;;;4933950;29;20535;-74
2023/08/06 05:47:42;;;;;;;4.13;3.30;;;;;;;;;;4932811;29;20662;-75
2023/08/06 05:50:26;;;;;;;6.40;3.00;;;;;;;;;;4901206;29;20219;-74
2023/08/06 05:52:52;;;;;;;5.40;3.30;;;;;;;;;;4917132;29;20179;-74
2023/08/06 05:55:19;;;;;;;2.83;2.57;;;;;;;;;;4909584;29;20197;-73
2023/08/06 05:57:46;;;;;;;4.47;3.00;;;;;;;;;;4929165;29;20246;-72
2023/08/06 06:00:16;;;;;;;4.13;2.97;;;;;;;;;;4927061;29;20191;-73
2023/08/06 06:03:02;;;;;;;4.30;3.30;;;;;;;;;;4903201;29;20218;-73
2023/08/06 06:05:31;;;;;;;3.33;2.53;;;;;;;;;;4920704;29;20286;-72
2023/08/06 06:07:58;;;;;;;4.77;2.80;;;;;;;;;;4933568;29;20206;-73
2023/08/06 06:10:25;;;;;;;2.83;2.53;;;;;;;;;;4931878;29;20573;-73
2023/08/06 06:12:52;;;;;;;2.80;1.97;;;;;;;;;;4932153;29;20206;-73
2023/08/06 06:15:19;;;;;;;2.70;2.23;;;;;;;;;;4932040;29;20203;-73
2023/08/06 06:17:45;;;;;;;3.67;2.20;;;;;;;;;;4912897;29;20198;-73
2023/08/06 06:20:13;;;;;;;2.57;2.37;;;;;;;;;;4895451;29;20284;-73
2023/08/06 06:22:40;;;;;;;5.03;2.63;;;;;;;;;;4930826;29;20186;-73
2023/08/06 06:25:07;;;;;;;2.77;2.57;;;;;;;;;;4913880;29;20195;-73
2023/08/06 06:27:34;;;;;;;3.20;2.50;;;;;;;;;;4932450;29;20191;-74
2023/08/06 06:30:03;;;;;;;4.13;2.87;;;;;;;;;;4932424;29;20281;-75
2023/08/06 06:32:30;;;;;;;5.67;3.17;;;;;;;;;;4914594;29;20234;-72
2023/08/06 06:34:58;;;;;;;4.00;3.40;;;;;;;;;;4932531;29;20197;-73
2023/08/06 06:37:25;;;;;;;5.97;3.90;;;;;;;;;;4929794;29;20852;-74
2023/08/06 06:39:52;;;;;;;6.37;4.30;;;;;;;;;;4925431;29;20554;-75
2023/08/06 06:42:19;;;;;;;6.17;4.20;;;;;;;;;;4910826;29;20578;-75
2023/08/06 06:45:07;;;;;;;8.37;5.50;;;;;;;;;;4900194;29;20186;-75
2023/08/06 06:47:34;;;;;;;8.47;5.63;;;;;;;;;;4930811;29;20230;-76
2023/08/06 06:50:00;;;;;;;9.00;6.13;;;;;;;;;;4933800;29;20266;-74
2023/08/06 06:52:27;;;;;;;10.90;6.80;;;;;;;;;;4914201;29;20194;-75
2023/08/06 06:54:54;;;;;;;13.20;7.40;;;;;;;;;;4931516;29;20203;-75
2023/08/06 06:57:21;;;;;;;11.83;7.10;;;;;;;;;;4935299;29;20218;-75
2023/08/06 06:59:48;;;;;;;11.93;6.93;;;;;;;;;;4930365;29;20191;-76
2023/08/06 07:02:15;;;;;;;11.70;6.73;;;;;;;;;;4933019;29;20198;-76
2023/08/06 07:04:59;;;;;;;10.80;6.97;;;;;;;;;;4933424;29;20182;-76
2023/08/06 07:07:25;;;;;;;11.00;7.60;;;;;;;;;;4932319;29;20278;-75
2023/08/06 07:09:52;;;;;;;14.27;7.07;;;;;;;;;;4934199;29;20281;-75
2023/08/06 07:12:21;;;;;;;10.43;6.20;;;;;;;;;;4931845;29;20219;-75
2023/08/06 07:14:48;;;;;;;9.07;6.50;;;;;;;;;;4932281;29;20209;-76
2023/08/06 07:17:32;;;;;;;10.30;5.67;;;;;;;;;;4934158;29;20179;-76
2023/08/06 07:19:59;;;;;;;7.87;5.10;;;;;;;;;;4933327;29;20198;-75
2023/08/06 07:22:26;;;;;;;12.07;5.37;;;;;;;;;;4916585;29;20199;-76
2023/08/06 07:24:52;;;;;;;8.33;5.43;;;;;;;;;;4933806;29;20706;-76
2023/08/06 07:27:20;;;;;;;9.57;4.50;;;;;;;;;;4934740;29;20254;-75
2023/08/06 07:29:48;;;;;;;10.70;4.97;;;;;;;;;;4931430;29;20211;-75
2023/08/06 07:32:15;;;;;;;7.73;5.03;;;;;;;;;;4932395;29;20187;-75
2023/08/06 07:34:41;;;;;;;6.10;5.00;;;;;;;;;;4932426;29;20680;-76
2023/08/06 07:37:08;;;;;;;6.63;5.20;;;;;;;;;;4934079;29;20284;-75
2023/08/06 07:39:37;;;;;;;12.10;4.93;;;;;;;;;;4932920;29;20270;-75
2023/08/06 07:42:05;;;;;;;12.87;5.30;;;;;;;;;;4931986;29;20207;-76
2023/08/06 07:44:32;;;;;;;11.43;4.90;;;;;;;;;;4934056;29;20281;-76
2023/08/06 07:46:59;;;;;;;7.00;4.70;;;;;;;;;;4913209;29;20766;-77
2023/08/06 07:49:27;;;;;;;7.00;5.00;;;;;;;;;;4913822;29;20622;-75
2023/08/06 07:52:11;;;;;;;12.93;4.87;;;;;;;;;;4913452;29;20568;-75
2023/08/06 07:54:38;;;;;;;8.13;4.67;;;;;;;;;;4914684;29;20512;-75
2023/08/06 07:57:05;;;;;;;13.17;4.40;;;;;;;;;;4914053;29;20230;-75
2023/08/06 07:59:33;;;;;;;8.20;4.30;;;;;;;;;;4916436;29;20192;-76
2023/08/06 08:02:00;;;;;;;8.80;4.70;;;;;;;;;;4931235;29;20654;-74
2023/08/06 08:04:27;;;;;;;13.37;5.00;;;;;;;;;;4919971;29;20198;-75
2023/08/06 08:06:53;;;;;;;9.57;5.03;;;;;;;;;;4915196;29;20204;-76
2023/08/06 08:09:20;;;;;;;8.70;5.53;;;;;;;;;;4916243;29;20718;-77
2023/08/06 08:11:47;;;;;;;8.83;5.90;;;;;;;;;;4915056;29;20223;-75
2023/08/06 08:14:13;;;;;;;11.43;5.47;;;;;;;;;;4915037;29;20192;-75
2023/08/06 08:16:40;;;;;;;8.43;5.80;;;;;;;;;;4913801;29;20199;-75
2023/08/06 08:19:07;;;;;;;8.40;5.70;;;;;;;;;;4915829;29;20192;-75
2023/08/06 08:21:34;;;;;;;14.60;5.00;;;;;;;;;;4910860;29;20255;-76
2023/08/06 08:24:01;;;;;;;8.40;4.77;;;;;;;;;;4914090;29;20666;-75
2023/08/06 08:26:28;;;;;;;7.80;4.40;;;;;;;;;;4912624;29;20199;-75
2023/08/06 08:28:55;;;;;;;14.87;5.17;;;;;;;;;;4914332;29;20229;-75
2023/08/06 08:31:22;;;;;;;13.47;4.97;;;;;;;;;;4895804;29;20275;-75
2023/08/06 08:33:50;;;;;;;20.13;5.57;;;;;;;;;;4898542;29;20192;-75
2023/08/06 08:36:21;;;;;;;12.43;6.37;;;;;;;;;;4916093;29;20184;-76
2023/08/06 08:38:53;;;;;;;13.20;6.47;;;;;;;;;;4914862;29;20714;-77
2023/08/06 08:41:20;;;;;;;16.47;6.67;;;;;;;;;;4916127;29;20278;-76
2023/08/06 08:43:47;;;;;;;11.57;6.67;;;;;;;;;;4914965;29;20202;-76
2023/08/06 08:46:32;;;;;;;18.50;6.77;;;;;;;;;;4909860;29;20303;-74
2023/08/06 08:49:00;;;;;;;17.10;7.37;;;;;;;;;;4914369;29;20215;-75
2023/08/06 08:51:27;;;;;;;14.07;7.57;;;;;;;;;;4913044;29;20267;-75
2023/08/06 08:53:57;;;;;;;12.47;7.33;;;;;;;;;;4913330;29;20710;-76
2023/08/06 08:56:24;;;;;;;16.20;7.53;;;;;;;;;;4908711;29;20206;-75
2023/08/06 08:58:55;;;;;;;13.60;7.83;;;;;;;;;;4914710;29;20295;-77
2023/08/06 09:01:22;;;;;;;15.80;11.47;;;;;;;;;;4902521;29;20227;-75
2023/08/06 09:03:48;;;;;;;15.57;10.97;;;;;;;;;;4903124;29;20210;-76
2023/08/06 09:06:16;;;;;;;16.47;10.90;;;;;;;;;;4913776;29;20203;-76
2023/08/06 09:08:49;;;;;;;16.07;13.27;;;;;;;;;;4915343;29;20187;-75
2023/08/06 09:11:16;;;;;;;18.30;7.40;;;;;;;;;;4914672;29;20275;-75
2023/08/06 09:13:43;;;;;;;13.90;7.67;;;;;;;;;;4912019;29;20294;-73
2023/08/06 09:16:10;;;;;;;13.00;8.17;;;;;;;;;;4905773;29;20579;-73
2023/08/06 09:18:37;;;;;;;11.97;7.60;;;;;;;;;;4903925;29;20290;-75
2023/08/06 09:21:04;;;;;;;15.17;8.40;;;;;;;;;;4906719;29;20192;-75
2023/08/06 09:23:31;;;;;;;12.97;8.50;;;;;;;;;;4907369;29;20199;-76
2023/08/06 09:25:58;;;;;;;12.60;9.00;;;;;;;;;;4914602;29;20259;-74
2023/08/06 09:28:36;;;;;;;16.27;10.03;;;;;;;;;;4914011;29;20243;-73
2023/08/06 09:31:03;;;;;;;11.70;9.30;;;;;;;;;;4879055;29;20235;-74
2023/08/06 09:33:30;;;;;;;14.77;9.57;;;;;;;;;;4909230;29;20251;-77
2023/08/06 09:35:57;;;;;;;10.77;9.50;;;;;;;;;;4909808;29;20247;-74
2023/08/06 09:38:24;;;;;;;13.17;9.83;;;;;;;;;;4908879;29;20188;-76
2023/08/06 09:40:54;;;;;;;12.63;10.60;;;;;;;;;;4914232;29;20599;-73
2023/08/06 09:43:20;;;;;;;13.90;11.37;;;;;;;;;;4914611;29;20194;-73
2023/08/06 09:45:47;;;;;;;13.73;10.47;;;;;;;;;;4913865;29;20203;-73
2023/08/06 09:48:15;;;;;;;12.43;11.13;;;;;;;;;;4929764;29;20191;-73
2023/08/06 09:50:42;;;;;;;12.87;11.03;;;;;;;;;;4928361;29;20229;-73
2023/08/06 09:53:09;;;;;;;13.50;11.57;;;;;;;;;;4931701;29;20179;-72
2023/08/06 09:55:54;;;;;;;13.40;12.00;;;;;;;;;;4928808;29;20179;-73
2023/08/06 09:58:22;;;;;;;19.23;11.20;;;;;;;;;;4885457;29;20872;-72
2023/08/06 10:00:49;;;;;;;14.53;12.13;;;;;;;;;;4932192;29;20203;-72
2023/08/06 10:03:17;;;;;;;13.27;11.77;;;;;;;;;;4899402;29;20199;-73
2023/08/06 10:05:44;;;;;;;14.57;13.00;;;;;;;;;;4913824;29;20313;-73
2023/08/06 10:08:29;;;;;;;15.37;12.83;;;;;;;;;;4915550;29;20187;-73
2023/08/06 10:10:57;;;;;;;15.10;13.00;;;;;;;;;;4929803;29;20238;-73
2023/08/06 10:13:24;;;;;;;14.73;13.30;;;;;;;;;;4911131;29;20191;-72
2023/08/06 10:15:51;;;;;;;14.20;12.10;;;;;;;;;;4901504;29;20199;-74
2023/08/06 10:18:21;;;;;;;14.53;11.80;;;;;;;;;;4917286;29;20579;-73
2023/08/06 10:20:48;;;;;;;13.57;11.97;;;;;;;;;;4918348;29;20183;-73
2023/08/06 10:23:15;;;;;;;13.33;11.83;;;;;;;;;;4916395;29;20410;-72
2023/08/06 10:25:42;;;;;;;13.67;12.13;;;;;;;;;;4902277;29;20540;-72
2023/08/06 10:28:38;;;;;;;14.93;11.73;;;;;;;;;;4918669;29;20732;-73
2023/08/06 10:31:06;;;;;;;15.70;12.47;;;;;;;;;;4901870;29;20230;-73
2023/08/06 10:33:43;;;;;;;14.03;11.63;;;;;;;;;;4902051;29;20255;-72
2023/08/06 10:36:10;;;;;;;15.40;12.83;;;;;;;;;;4886606;29;20195;-73
2023/08/06 10:38:49;;;;;;;15.20;12.10;;;;;;;;;;4918718;29;20559;-73
2023/08/06 10:41:29;;;;;;;15.73;12.50;;;;;;;;;;4886651;29;20254;-73
2023/08/06 10:44:05;;;;;;;13.63;11.50;;;;;;;;;;4917727;29;20554;-73
2023/08/06 10:46:31;;;;;;;15.07;12.93;;;;;;;;;;4918512;29;20231;-73
2023/08/06 10:49:17;;;;;;;16.70;13.17;;;;;;;;;;4918536;29;20235;-73
2023/08/06 10:51:44;;;;;;;16.23;12.90;;;;;;;;;;4918452;29;20230;-73
2023/08/06 10:54:10;;;;;;;17.30;13.30;;;;;;;;;;4903535;29;20210;-73
2023/08/06 10:56:39;;;;;;;17.27;13.80;;;;;;;;;;4920492;29;20183;-73
2023/08/06 10:59:06;;;;;;;18.97;15.10;;;;;;;;;;4919095;29;20195;-72
2023/08/06 11:01:34;;;;;;;16.73;14.73;;;;;;;;;;4937405;29;20175;-72
2023/08/06 11:04:02;;;;;;;18.43;15.17;;;;;;;;;;4920424;29;20278;-72
2023/08/06 11:06:28;;;;;;;18.60;15.30;;;;;;;;;;4920417;29;20183;-72
2023/08/06 11:08:55;;;;;;;20.03;15.50;;;;;;;;;;4920215;29;20278;-72
2023/08/06 11:11:22;;;;;;;18.60;15.67;;;;;;;;;;4920313;29;20206;-72
2023/08/06 11:13:49;;;;;;;18.63;15.07;;;;;;;;;;4920127;29;20589;-73
2023/08/06 11:16:34;;;;;;;19.17;15.30;;;;;;;;;;4921206;29;22464;-73
2023/08/06 11:19:01;;;;;;;18.67;16.10;;;;;;;;;;4919931;29;20504;-73
2023/08/06 11:21:47;;;;;;;18.43;15.83;;;;;;;;;;4919844;29;20261;-72
2023/08/06 11:24:14;;;;;;;18.50;15.37;;;;;;;;;;4920327;29;20249;-72
2023/08/06 11:26:58;;;;;;;17.10;14.60;;;;;;;;;;4922721;29;20188;-72
2023/08/06 11:29:26;;;;;;;19.93;15.40;;;;;;;;;;4936730;29;20183;-73
2023/08/06 11:31:52;;;;;;;19.10;15.17;;;;;;;;;;4936407;29;20227;-72
2023/08/06 11:34:20;;;;;;;17.23;15.43;;;;;;;;;;4934200;29;20201;-72
2023/08/06 11:36:46;;;;;;;17.43;14.70;;;;;;;;;;4936731;29;20238;-72
2023/08/06 11:39:34;;;;;;;18.40;14.13;;;;;;;;;;4936541;29;20171;-72
2023/08/06 11:42:04;;;;;;;16.53;12.87;;;;;;;;;;4919566;29;20547;-72
2023/08/06 11:44:34;;;;;;;15.23;13.70;;;;;;;;;;4933782;29;20674;-73
2023/08/06 11:47:02;;;;;;;16.50;14.37;;;;;;;;;;4920078;29;20227;-72
2023/08/06 11:49:45;;;;;;;15.47;13.93;;;;;;;;;;4936407;29;20209;-73
2023/08/06 11:52:29;;;;;;;17.60;14.50;;;;;;;;;;4917363;29;20254;-73
2023/08/06 11:55:00;;;;;;;15.97;13.03;;;;;;;;;;4925340;29;20287;-73
2023/08/06 11:57:28;;;;;;;14.37;12.83;;;;;;;;;;4936333;29;20199;-72
2023/08/06 11:59:55;;;;;;;14.60;12.97;;;;;;;;;;4936469;29;20179;-72
2023/08/06 12:02:23;;;;;;;14.17;12.80;;;;;;;;;;4919335;29;20171;-72
2023/08/06 12:05:09;;;;;;;15.83;13.13;;;;;;;;;;4936135;29;20171;-73
2023/08/06 12:07:42;;;;;;;14.30;12.03;;;;;;;;;;4934812;29;20187;-73
2023/08/06 12:10:27;;;;;;;15.33;12.43;;;;;;;;;;4921879;29;20171;-73
2023/08/06 12:12:57;;;;;;;16.93;14.70;;;;;;;;;;4899600;29;20222;-74
2023/08/06 12:15:24;;;;;;;16.27;13.67;;;;;;;;;;4934207;29;20454;-73
2023/08/06 12:17:53;;;;;;;15.60;13.90;;;;;;;;;;4917199;29;20558;-74
2023/08/06 12:20:20;;;;;;;15.33;13.83;;;;;;;;;;4933840;29;20190;-73
2023/08/06 12:22:47;;;;;;;15.00;12.40;;;;;;;;;;4917197;29;20651;-74
2023/08/06 12:25:14;;;;;;;15.43;13.77;;;;;;;;;;4915871;29;20198;-73
2023/08/06 12:27:42;;;;;;;13.37;11.97;;;;;;;;;;4933881;29;20307;-73
2023/08/06 12:30:10;;;;;;;14.63;13.03;;;;;;;;;;4933464;29;20250;-73
2023/08/06 12:32:37;;;;;;;14.43;12.83;;;;;;;;;;4914503;29;20217;-73
2023/08/06 12:35:07;;;;;;;16.37;12.53;;;;;;;;;;4915208;29;20720;-74
2023/08/06 12:37:34;;;;;;;16.63;13.07;;;;;;;;;;4934104;29;20785;-73
2023/08/06 12:40:01;;;;;;;14.03;12.53;;;;;;;;;;4917220;29;20266;-73
2023/08/06 12:42:50;;;;;;;13.17;11.77;;;;;;;;;;4913587;29;20199;-75
2023/08/06 12:45:20;;;;;;;14.77;12.20;;;;;;;;;;4916516;29;20200;-72
2023/08/06 12:47:49;;;;;;;12.87;11.63;;;;;;;;;;4923517;29;20694;-76
2023/08/06 12:50:17;;;;;;;13.77;11.73;;;;;;;;;;4891757;29;20265;-74
2023/08/06 12:52:45;;;;;;;15.10;11.83;;;;;;;;;;4933978;29;20250;-74
2023/08/06 12:55:14;;;;;;;13.60;11.10;;;;;;;;;;4932914;29;20187;-75
2023/08/06 12:57:41;;;;;;;13.00;11.70;;;;;;;;;;4928432;29;20231;-74
2023/08/06 13:00:11;;;;;;;13.60;12.20;;;;;;;;;;4931068;29;20188;-73
2023/08/06 13:02:37;;;;;;;12.73;11.43;;;;;;;;;;4916813;29;20290;-73
2023/08/06 13:05:06;;;;;;;13.00;11.80;;;;;;;;;;4914710;29;20241;-74
2023/08/06 13:07:32;;;;;;;13.73;12.43;;;;;;;;;;4934320;29;20200;-75
2023/08/06 13:10:00;;;;;;;12.70;11.50;;;;;;;;;;4933711;29;20220;-76
2023/08/06 13:12:26;;;;;;;12.87;11.67;;;;;;;;;;4933051;29;20226;-75
2023/08/06 13:15:11;;;;;;;13.20;11.77;;;;;;;;;;4931549;29;20192;-79
2023/08/06 13:17:38;;;;;;;15.87;11.50;;;;;;;;;;4929296;29;20201;-75
2023/08/06 13:20:23;;;;;;;13.73;11.63;;;;;;;;;;4934071;29;20177;-74
2023/08/06 13:22:52;;;;;;;14.17;11.13;;;;;;;;;;4917024;29;20698;-73
2023/08/06 13:25:38;;;;;;;13.07;11.67;;;;;;;;;;4920642;29;20186;-73
2023/08/06 13:28:05;;;;;;;13.03;11.60;;;;;;;;;;4911973;29;20205;-74
2023/08/06 13:30:41;;;;;;;11.93;10.73;;;;;;;;;;4911246;29;20283;-81
2023/08/06 13:33:09;;;;;;;14.00;11.83;;;;;;;;;;4918009;29;20277;-73
2023/08/06 13:35:53;;;;;;;13.73;10.70;;;;;;;;;;4932829;29;20321;-73
2023/08/06 13:38:21;;;;;;;13.17;11.83;;;;;;;;;;4931687;29;20202;-72
2023/08/06 13:40:48;;;;;;;12.37;11.17;;;;;;;;;;4940457;29;20197;-73
2023/08/06 13:43:20;;;;;;;12.87;10.60;;;;;;;;;;4898429;29;20204;-75
2023/08/06 13:45:47;;;;;;;12.60;11.30;;;;;;;;;;4933182;29;20191;-73
2023/08/06 13:48:14;;;;;;;12.30;11.20;;;;;;;;;;4930950;29;20199;-72
2023/08/06 13:50:41;;;;;;;13.87;11.50;;;;;;;;;;4926779;29;20328;-73
2023/08/06 13:53:09;;;;;;;11.83;10.70;;;;;;;;;;4930930;29;20245;-72
2023/08/06 13:55:36;;;;;;;12.17;11.07;;;;;;;;;;4913108;29;20194;-73
2023/08/06 13:58:05;;;;;;;11.30;10.20;;;;;;;;;;4898274;29;20206;-73
2023/08/06 14:00:33;;;;;;;11.90;10.87;;;;;;;;;;4928553;29;20191;-72
2023/08/06 14:03:00;;;;;;;10.67;9.60;;;;;;;;;;4930901;29;20213;-72
2023/08/06 14:05:27;;;;;;;11.17;10.17;;;;;;;;;;4919275;29;20225;-73
2023/08/06 14:08:00;;;;;;;11.30;10.03;;;;;;;;;;4924558;29;20277;-73
2023/08/06 14:10:27;;;;;;;11.27;10.17;;;;;;;;;;4933609;29;20222;-73
2023/08/06 14:12:54;;;;;;;11.37;10.37;;;;;;;;;;4915848;29;20214;-73
2023/08/06 14:15:41;;;;;;;11.47;10.30;;;;;;;;;;4930991;29;20665;-73
2023/08/06 14:18:08;;;;;;;11.53;10.30;;;;;;;;;;4916688;29;20195;-70
2023/08/06 14:20:35;;;;;;;11.50;10.47;;;;;;;;;;4932765;29;20229;-72
2023/08/06 14:23:03;;;;;;;11.80;10.57;;;;;;;;;;4927185;29;20209;-79
2023/08/06 14:25:30;;;;;;;11.63;10.60;;;;;;;;;;4911495;29;20186;-71
2023/08/06 14:27:57;;;;;;;11.57;10.43;;;;;;;;;;4923029;29;20199;-74
2023/08/06 14:30:24;;;;;;;11.80;10.20;;;;;;;;;;4925472;29;20285;-72
2023/08/06 14:32:51;;;;;;;12.17;11.07;;;;;;;;;;4904371;29;20230;-73
2023/08/06 14:35:20;;;;;;;12.03;10.77;;;;;;;;;;4912504;29;20714;-72
2023/08/06 14:37:47;;;;;;;12.20;10.87;;;;;;;;;;4925307;29;20203;-72
2023/08/06 14:40:14;;;;;;;12.50;11.20;;;;;;;;;;4917887;28;20238;-72
2023/08/06 14:42:41;;;;;;;11.80;10.77;;;;;;;;;;4896181;29;20214;-72
2023/08/06 14:45:08;;;;;;;12.97;11.53;;;;;;;;;;4927704;29;20191;-72
2023/08/06 14:47:35;;;;;;;13.30;11.87;;;;;;;;;;4928482;29;20262;-72
2023/08/06 14:50:02;;;;;;;13.80;12.33;;;;;;;;;;4914109;29;20298;-72
2023/08/06 14:52:29;;;;;;;15.60;12.20;;;;;;;;;;4910398;29;20326;-72
2023/08/06 14:54:56;;;;;;;14.87;13.17;;;;;;;;;;4880017;29;20807;-72
2023/08/06 14:57:41;;;;;;;14.10;12.50;;;;;;;;;;4912468;29;20191;-72
2023/08/06 15:00:10;;;;;;;13.20;11.80;;;;;;;;;;4926987;29;20199;-72
2023/08/06 15:02:37;;;;;;;16.73;12.83;;;;;;;;;;4925481;29;20197;-73
2023/08/06 15:05:05;;;;;;;16.30;13.47;;;;;;;;;;4925571;29;20666;-72
2023/08/06 15:07:35;;;;;;;14.43;13.03;;;;;;;;;;4928878;29;20196;-72
2023/08/06 15:10:04;;;;;;;13.90;12.57;;;;;;;;;;4899187;29;20199;-72
2023/08/06 15:12:45;;;;;;;14.33;12.93;;;;;;;;;;4922061;29;20696;-72
2023/08/06 15:15:13;;;;;;;14.47;13.07;;;;;;;;;;4931330;29;20523;-72
2023/08/06 15:17:40;;;;;;;16.20;14.60;;;;;;;;;;4932142;29;20185;-72